createdAt,value
2023-02-27T00:00:23.555Z,-1.40
2023-02-27T00:01:09.448Z,-1.40
2023-02-27T00:01:55.467Z,-1.40
2023-02-27T00:02:41.434Z,-1.40
2023-02-27T00:03:27.649Z,-1.40
2023-02-27T00:04:13.411Z,-1.40
2023-02-27T00:04:59.468Z,-1.40
2023-02-27T00:05:45.974Z,-1.40
2023-02-27T00:06:31.527Z,-1.40
2023-02-27T00:07:17.647Z,-1.40
2023-02-27T00:08:03.502Z,-1.40
2023-02-27T00:08:49.527Z,-1.40
2023-02-27T00:09:35.470Z,-1.40
2023-02-27T00:10:21.420Z,-1.40
2023-02-27T00:11:07.492Z,-1.40
2023-02-27T00:11:53.454Z,-1.30
2023-02-27T00:12:39.553Z,-1.30
2023-02-27T00:13:25.519Z,-1.30
2023-02-27T00:14:11.508Z,-1.30
2023-02-27T00:14:57.532Z,-1.30
2023-02-27T00:15:43.587Z,-1.30
2023-02-27T00:16:29.578Z,-1.30
2023-02-27T00:17:15.550Z,-1.30
2023-02-27T00:18:01.642Z,-1.30
2023-02-27T00:18:47.470Z,-1.30
2023-02-27T00:19:33.532Z,-1.30
2023-02-27T00:20:19.527Z,-1.30
2023-02-27T00:21:05.509Z,-1.30
2023-02-27T00:21:51.485Z,-1.30
2023-02-27T00:22:37.560Z,-1.40
2023-02-27T00:23:23.603Z,-1.40
2023-02-27T00:24:09.654Z,-1.40
2023-02-27T00:24:55.556Z,-1.40
2023-02-27T00:25:41.580Z,-1.40
2023-02-27T00:26:27.588Z,-1.40
2023-02-27T00:27:13.559Z,-1.40
2023-02-27T00:27:59.593Z,-1.50
2023-02-27T00:28:46.033Z,-1.50
2023-02-27T00:29:31.498Z,-1.50
2023-02-27T00:30:17.987Z,-1.50
2023-02-27T00:31:03.658Z,-1.60
2023-02-27T00:31:49.668Z,-1.60
2023-02-27T00:32:35.619Z,-1.60
2023-02-27T00:33:21.527Z,-1.60
2023-02-27T00:34:07.603Z,-1.60
2023-02-27T00:34:53.543Z,-1.60
2023-02-27T00:35:39.615Z,-1.60
2023-02-27T00:36:25.612Z,-1.60
2023-02-27T00:37:11.646Z,-1.60
2023-02-27T00:37:57.641Z,-1.60
2023-02-27T00:38:43.551Z,-1.60
2023-02-27T00:39:29.581Z,-1.70
2023-02-27T00:40:15.670Z,-1.70
2023-02-27T00:41:01.679Z,-1.70
2023-02-27T00:41:47.653Z,-1.70
2023-02-27T00:42:33.578Z,-1.70
2023-02-27T00:43:19.744Z,-1.70
2023-02-27T00:44:05.575Z,-1.70
2023-02-27T00:44:51.613Z,-1.70
2023-02-27T00:45:37.698Z,-1.60
2023-02-27T00:46:23.614Z,-1.60
2023-02-27T00:47:09.654Z,-1.60
2023-02-27T00:47:55.656Z,-1.60
2023-02-27T00:48:41.668Z,-1.60
2023-02-27T00:49:27.729Z,-1.70
2023-02-27T00:50:13.644Z,-1.70
2023-02-27T00:50:59.621Z,-1.70
2023-02-27T00:51:46.042Z,-1.70
2023-02-27T00:52:31.641Z,-1.70
2023-02-27T00:53:17.983Z,-1.70
2023-02-27T00:54:03.645Z,-1.70
2023-02-27T00:54:49.698Z,-1.80
2023-02-27T00:55:35.670Z,-1.70
2023-02-27T00:56:21.635Z,-1.70
2023-02-27T00:57:07.737Z,-1.70
2023-02-27T00:57:53.814Z,-1.70
2023-02-27T00:58:39.744Z,-1.70
2023-02-27T00:59:25.785Z,-1.70
2023-02-27T01:00:11.816Z,-1.70
2023-02-27T01:00:57.740Z,-1.70
2023-02-27T01:01:43.686Z,-1.70
2023-02-27T01:02:29.803Z,-1.70
2023-02-27T01:03:15.813Z,-1.70
2023-02-27T01:04:02.008Z,-1.70
2023-02-27T01:04:47.875Z,-1.70
2023-02-27T01:05:33.738Z,-1.70
2023-02-27T01:06:19.749Z,-1.70
2023-02-27T01:07:05.718Z,-1.70
2023-02-27T01:07:51.737Z,-1.70
2023-02-27T01:08:37.758Z,-1.70
2023-02-27T01:09:23.750Z,-1.70
2023-02-27T01:10:09.840Z,-1.60
2023-02-27T01:10:55.864Z,-1.60
2023-02-27T01:11:42.032Z,-1.60
2023-02-27T01:12:27.943Z,-1.60
2023-02-27T01:13:13.718Z,-1.60
2023-02-27T01:13:59.831Z,-1.60
2023-02-27T01:14:46.473Z,-1.70
2023-02-27T01:15:32.011Z,-1.70
2023-02-27T01:16:18.357Z,-1.70
2023-02-27T01:17:03.768Z,-1.70
2023-02-27T01:17:49.930Z,-1.70
2023-02-27T01:18:35.993Z,-1.80
2023-02-27T01:19:22.197Z,-1.80
2023-02-27T01:20:07.907Z,-1.80
2023-02-27T01:20:54.026Z,-1.70
2023-02-27T01:21:40.106Z,-1.70
2023-02-27T01:22:25.883Z,-1.70
2023-02-27T01:23:11.903Z,-1.70
2023-02-27T01:23:58.010Z,-1.70
2023-02-27T01:24:43.980Z,-1.80
2023-02-27T01:25:29.957Z,-1.80
2023-02-27T01:26:15.867Z,-1.80
2023-02-27T01:27:01.946Z,-1.80
2023-02-27T01:27:48.034Z,-1.80
2023-02-27T01:28:34.011Z,-1.80
2023-02-27T01:29:19.973Z,-1.80
2023-02-27T01:30:06.070Z,-1.80
2023-02-27T01:30:52.086Z,-1.80
2023-02-27T01:31:38.101Z,-1.80
2023-02-27T01:32:24.083Z,-1.90
2023-02-27T01:33:10.043Z,-1.90
2023-02-27T01:33:55.919Z,-1.90
2023-02-27T01:34:41.863Z,-1.90
2023-02-27T01:35:27.976Z,-1.90
2023-02-27T01:36:13.883Z,-1.90
2023-02-27T01:36:59.956Z,-1.90
2023-02-27T01:37:46.451Z,-1.90
2023-02-27T01:38:31.985Z,-1.90
2023-02-27T01:39:18.391Z,-1.90
2023-02-27T01:40:04.028Z,-1.90
2023-02-27T01:40:49.998Z,-1.90
2023-02-27T01:41:36.029Z,-1.90
2023-02-27T01:42:22.069Z,-2.00
2023-02-27T01:43:07.954Z,-2.00
2023-02-27T01:43:54.042Z,-1.90
2023-02-27T01:44:40.059Z,-1.90
2023-02-27T01:45:26.159Z,-1.90
2023-02-27T01:46:12.100Z,-1.90
2023-02-27T01:46:57.957Z,-1.90
2023-02-27T01:47:44.139Z,-1.90
2023-02-27T01:48:30.063Z,-1.90
2023-02-27T01:49:16.011Z,-1.90
2023-02-27T01:50:02.149Z,-1.90
2023-02-27T01:50:48.200Z,-1.80
2023-02-27T01:51:34.101Z,-1.80
2023-02-27T01:52:19.978Z,-1.80
2023-02-27T01:53:05.967Z,-1.80
2023-02-27T01:53:51.975Z,-1.80
2023-02-27T01:54:38.080Z,-1.80
2023-02-27T01:55:24.113Z,-1.80
2023-02-27T01:56:10.117Z,-1.80
2023-02-27T01:56:56.123Z,-1.80
2023-02-27T01:57:42.277Z,-1.80
2023-02-27T01:58:28.073Z,-1.70
2023-02-27T01:59:14.135Z,-1.70
2023-02-27T02:00:00.136Z,-1.70
2023-02-27T02:00:46.371Z,-1.70
2023-02-27T02:01:32.159Z,-1.70
2023-02-27T02:02:18.605Z,-1.70
2023-02-27T02:03:04.200Z,-1.80
2023-02-27T02:03:50.049Z,-1.80
2023-02-27T02:04:36.074Z,-1.80
2023-02-27T02:05:22.330Z,-1.80
2023-02-27T02:06:08.141Z,-1.80
2023-02-27T02:06:54.208Z,-1.80
2023-02-27T02:07:40.205Z,-1.80
2023-02-27T02:08:26.256Z,-1.80
2023-02-27T02:09:12.206Z,-1.80
2023-02-27T02:09:58.174Z,-1.80
2023-02-27T02:10:44.271Z,-1.80
2023-02-27T02:11:30.254Z,-1.80
2023-02-27T02:12:16.366Z,-1.80
2023-02-27T02:13:02.256Z,-1.80
2023-02-27T02:13:48.509Z,-1.80
2023-02-27T02:14:34.176Z,-1.80
2023-02-27T02:15:20.264Z,-1.80
2023-02-27T02:16:06.185Z,-1.80
2023-02-27T02:16:52.324Z,-1.80
2023-02-27T02:17:38.241Z,-1.80
2023-02-27T02:18:24.195Z,-1.80
2023-02-27T02:19:10.330Z,-1.80
2023-02-27T02:19:56.449Z,-1.80
2023-02-27T02:20:42.097Z,-1.80
2023-02-27T02:21:28.364Z,-1.80
2023-02-27T02:22:14.202Z,-1.90
2023-02-27T02:23:00.239Z,-1.90
2023-02-27T02:23:46.283Z,-1.90
2023-02-27T02:24:32.240Z,-1.90
2023-02-27T02:25:18.664Z,-1.90
2023-02-27T02:26:04.208Z,-1.90
2023-02-27T02:26:50.278Z,-1.80
2023-02-27T02:27:36.275Z,-1.80
2023-02-27T02:28:22.186Z,-1.80
2023-02-27T02:29:08.233Z,-1.80
2023-02-27T02:29:54.408Z,-1.80
2023-02-27T02:30:40.533Z,-1.80
2023-02-27T02:31:27.095Z,-1.80
2023-02-27T02:32:12.490Z,-1.80
2023-02-27T02:32:58.271Z,-1.80
2023-02-27T02:33:44.189Z,-1.80
2023-02-27T02:34:30.373Z,-1.80
2023-02-27T02:35:16.269Z,-1.80
2023-02-27T02:36:02.591Z,-1.80
2023-02-27T02:36:48.647Z,-1.80
2023-02-27T02:37:34.285Z,-1.80
2023-02-27T02:38:20.363Z,-1.80
2023-02-27T02:39:06.456Z,-1.80
2023-02-27T02:39:52.368Z,-1.80
2023-02-27T02:40:38.341Z,-1.80
2023-02-27T02:41:24.529Z,-1.80
2023-02-27T02:42:10.398Z,-1.80
2023-02-27T02:42:56.453Z,-1.80
2023-02-27T02:43:42.342Z,-1.80
2023-02-27T02:44:28.302Z,-1.90
2023-02-27T02:45:14.469Z,-1.90
2023-02-27T02:46:00.391Z,-1.90
2023-02-27T02:46:46.975Z,-1.90
2023-02-27T02:47:32.771Z,-1.90
2023-02-27T02:48:18.803Z,-1.90
2023-02-27T02:49:04.448Z,-2.00
2023-02-27T02:49:50.410Z,-2.00
2023-02-27T02:50:36.311Z,-2.00
2023-02-27T02:51:22.516Z,-2.00
2023-02-27T02:52:08.331Z,-2.00
2023-02-27T02:52:54.592Z,-2.10
2023-02-27T02:53:40.518Z,-2.10
2023-02-27T02:54:26.473Z,-2.10
2023-02-27T02:55:12.448Z,-2.10
2023-02-27T02:55:58.407Z,-2.10
2023-02-27T02:56:44.356Z,-2.10
2023-02-27T02:57:30.439Z,-2.10
2023-02-27T02:58:16.368Z,-2.20
2023-02-27T02:59:02.468Z,-2.20
2023-02-27T02:59:49.430Z,-2.20
2023-02-27T03:00:34.681Z,-2.20
2023-02-27T03:01:20.493Z,-2.20
2023-02-27T03:02:06.650Z,-2.20
2023-02-27T03:02:52.381Z,-2.20
2023-02-27T03:03:38.405Z,-2.20
2023-02-27T03:04:24.699Z,-2.20
2023-02-27T03:05:10.422Z,-2.20
2023-02-27T03:05:56.482Z,-2.20
2023-02-27T03:06:42.476Z,-2.20
2023-02-27T03:07:28.609Z,-2.20
2023-02-27T03:08:14.580Z,-2.30
2023-02-27T03:09:00.410Z,-2.30
2023-02-27T03:09:46.848Z,-2.20
2023-02-27T03:10:32.456Z,-2.20
2023-02-27T03:11:18.757Z,-2.20
2023-02-27T03:12:04.487Z,-2.20
2023-02-27T03:12:50.544Z,-2.20
2023-02-27T03:13:36.483Z,-2.20
2023-02-27T03:14:22.559Z,-2.20
2023-02-27T03:15:08.592Z,-2.20
2023-02-27T03:15:54.499Z,-2.20
2023-02-27T03:16:40.560Z,-2.20
2023-02-27T03:17:26.616Z,-2.20
2023-02-27T03:18:12.536Z,-2.20
2023-02-27T03:18:58.431Z,-2.20
2023-02-27T03:19:44.485Z,-2.20
2023-02-27T03:20:30.503Z,-2.20
2023-02-27T03:21:16.444Z,-2.20
2023-02-27T03:22:02.450Z,-2.20
2023-02-27T03:22:48.856Z,-2.20
2023-02-27T03:23:34.705Z,-2.20
2023-02-27T03:24:20.597Z,-2.20
2023-02-27T03:25:06.538Z,-2.20
2023-02-27T03:25:52.603Z,-2.20
2023-02-27T03:26:38.540Z,-2.20
2023-02-27T03:27:24.493Z,-2.20
2023-02-27T03:28:10.570Z,-2.20
2023-02-27T03:28:56.603Z,-2.20
2023-02-27T03:29:42.729Z,-2.20
2023-02-27T03:30:28.669Z,-2.20
2023-02-27T03:31:14.706Z,-2.20
2023-02-27T03:32:00.701Z,-2.20
2023-02-27T03:32:46.551Z,-2.20
2023-02-27T03:33:32.609Z,-2.20
2023-02-27T03:34:18.899Z,-2.20
2023-02-27T03:35:04.673Z,-2.20
2023-02-27T03:35:50.699Z,-2.20
2023-02-27T03:36:36.665Z,-2.30
2023-02-27T03:37:22.600Z,-2.30
2023-02-27T03:38:08.657Z,-2.30
2023-02-27T03:38:54.777Z,-2.30
2023-02-27T03:39:40.647Z,-2.30
2023-02-27T03:40:26.943Z,-2.30
2023-02-27T03:41:12.719Z,-2.30
2023-02-27T03:41:58.684Z,-2.30
2023-02-27T03:42:44.763Z,-2.30
2023-02-27T03:43:30.709Z,-2.30
2023-02-27T03:44:16.666Z,-2.30
2023-02-27T03:45:02.940Z,-2.30
2023-02-27T03:45:48.959Z,-2.40
2023-02-27T03:46:34.756Z,-2.40
2023-02-27T03:47:20.697Z,-2.40
2023-02-27T03:48:06.654Z,-2.40
2023-02-27T03:48:52.719Z,-2.40
2023-02-27T03:49:38.685Z,-2.40
2023-02-27T03:50:24.806Z,-2.40
2023-02-27T03:51:10.748Z,-2.40
2023-02-27T03:51:56.702Z,-2.40
2023-02-27T03:52:42.806Z,-2.40
2023-02-27T03:53:28.765Z,-2.40
2023-02-27T03:54:14.614Z,-2.40
2023-02-27T03:55:00.736Z,-2.40
2023-02-27T03:55:46.597Z,-2.40
2023-02-27T03:56:32.630Z,-2.40
2023-02-27T03:57:18.865Z,-2.40
2023-02-27T03:58:04.674Z,-2.40
2023-02-27T03:58:50.710Z,-2.40
2023-02-27T03:59:36.614Z,-2.40
2023-02-27T04:00:22.718Z,-2.40
2023-02-27T04:01:08.645Z,-2.30
2023-02-27T04:01:54.621Z,-2.30
2023-02-27T04:02:40.669Z,-2.30
2023-02-27T04:03:26.688Z,-2.30
2023-02-27T04:04:12.689Z,-2.30
2023-02-27T04:04:58.614Z,-2.30
2023-02-27T04:05:44.693Z,-2.30
2023-02-27T04:06:30.810Z,-2.40
2023-02-27T04:07:16.630Z,-2.40
2023-02-27T04:08:02.707Z,-2.40
2023-02-27T04:08:48.848Z,-2.40
2023-02-27T04:09:34.719Z,-2.40
2023-02-27T04:10:20.822Z,-2.30
2023-02-27T04:11:06.748Z,-2.30
2023-02-27T04:11:52.672Z,-2.30
2023-02-27T04:12:38.632Z,-2.30
2023-02-27T04:13:24.769Z,-2.30
2023-02-27T04:14:10.657Z,-2.30
2023-02-27T04:14:56.737Z,-2.30
2023-02-27T04:15:42.790Z,-2.30
2023-02-27T04:16:28.757Z,-2.30
2023-02-27T04:17:14.804Z,-2.30
2023-02-27T04:18:00.803Z,-2.20
2023-02-27T04:18:46.737Z,-2.20
2023-02-27T04:19:32.799Z,-2.20
2023-02-27T04:20:18.915Z,-2.20
2023-02-27T04:21:04.783Z,-2.20
2023-02-27T04:21:50.789Z,-2.30
2023-02-27T04:22:36.759Z,-2.30
2023-02-27T04:23:22.763Z,-2.30
2023-02-27T04:24:08.701Z,-2.30
2023-02-27T04:24:54.773Z,-2.30
2023-02-27T04:25:40.759Z,-2.30
2023-02-27T04:26:26.860Z,-2.30
2023-02-27T04:27:12.831Z,-2.30
2023-02-27T04:27:58.814Z,-2.30
2023-02-27T04:28:44.798Z,-2.40
2023-02-27T04:29:30.772Z,-2.40
2023-02-27T04:30:16.927Z,-2.40
2023-02-27T04:31:02.936Z,-2.40
2023-02-27T04:31:49.075Z,-2.40
2023-02-27T04:32:34.932Z,-2.40
2023-02-27T04:33:20.800Z,-2.40
2023-02-27T04:34:06.804Z,-2.40
2023-02-27T04:34:52.844Z,-2.40
2023-02-27T04:35:38.897Z,-2.40
2023-02-27T04:36:24.770Z,-2.50
2023-02-27T04:37:10.804Z,-2.50
2023-02-27T04:37:56.872Z,-2.50
2023-02-27T04:38:42.835Z,-2.50
2023-02-27T04:39:28.873Z,-2.50
2023-02-27T04:40:14.806Z,-2.50
2023-02-27T04:41:00.797Z,-2.50
2023-02-27T04:41:46.886Z,-2.50
2023-02-27T04:42:32.874Z,-2.50
2023-02-27T04:43:18.967Z,-2.50
2023-02-27T04:44:04.941Z,-2.50
2023-02-27T04:44:50.846Z,-2.50
2023-02-27T04:45:36.996Z,-2.50
2023-02-27T04:46:22.862Z,-2.50
2023-02-27T04:47:08.865Z,-2.50
2023-02-27T04:47:54.852Z,-2.60
2023-02-27T04:48:40.848Z,-2.50
2023-02-27T04:49:26.890Z,-2.60
2023-02-27T04:50:12.839Z,-2.60
2023-02-27T04:50:58.843Z,-2.60
2023-02-27T04:51:44.918Z,-2.60
2023-02-27T04:52:30.917Z,-2.60
2023-02-27T04:53:16.860Z,-2.60
2023-02-27T04:54:02.875Z,-2.60
2023-02-27T04:54:49.004Z,-2.60
2023-02-27T04:55:35.014Z,-2.60
2023-02-27T04:56:20.950Z,-2.60
2023-02-27T04:57:06.834Z,-2.60
2023-02-27T04:57:52.884Z,-2.60
2023-02-27T04:58:38.989Z,-2.60
2023-02-27T04:59:24.907Z,-2.60
2023-02-27T05:00:11.014Z,-2.60
2023-02-27T05:00:57.053Z,-2.60
2023-02-27T05:01:42.954Z,-2.60
2023-02-27T05:02:28.997Z,-2.60
2023-02-27T05:03:14.971Z,-2.60
2023-02-27T05:04:01.019Z,-2.60
2023-02-27T05:04:46.979Z,-2.60
2023-02-27T05:05:32.990Z,-2.60
2023-02-27T05:06:19.049Z,-2.50
2023-02-27T05:07:04.953Z,-2.50
2023-02-27T05:07:51.040Z,-2.50
2023-02-27T05:08:36.958Z,-2.50
2023-02-27T05:09:23.049Z,-2.50
2023-02-27T05:10:08.910Z,-2.50
2023-02-27T05:10:54.972Z,-2.50
2023-02-27T05:11:40.981Z,-2.50
2023-02-27T05:12:27.065Z,-2.50
2023-02-27T05:13:12.987Z,-2.50
2023-02-27T05:13:58.959Z,-2.50
2023-02-27T05:14:45.008Z,-2.60
2023-02-27T05:15:31.035Z,-2.60
2023-02-27T05:16:17.050Z,-2.60
2023-02-27T05:17:03.094Z,-2.60
2023-02-27T05:17:49.258Z,-2.60
2023-02-27T05:18:35.086Z,-2.60
2023-02-27T05:19:21.095Z,-2.50
2023-02-27T05:20:07.003Z,-2.50
2023-02-27T05:20:53.041Z,-2.50
2023-02-27T05:21:39.067Z,-2.60
2023-02-27T05:22:25.027Z,-2.60
2023-02-27T05:23:10.934Z,-2.60
2023-02-27T05:23:57.085Z,-2.60
2023-02-27T05:24:43.050Z,-2.60
2023-02-27T05:25:29.043Z,-2.60
2023-02-27T05:26:15.006Z,-2.60
2023-02-27T05:27:01.325Z,-2.60
2023-02-27T05:27:47.070Z,-2.60
2023-02-27T05:28:33.053Z,-2.60
2023-02-27T05:29:19.163Z,-2.70
2023-02-27T05:30:05.178Z,-2.70
2023-02-27T05:30:51.059Z,-2.70
2023-02-27T05:31:37.155Z,-2.70
2023-02-27T05:32:23.168Z,-2.70
2023-02-27T05:33:09.099Z,-2.70
2023-02-27T05:33:55.080Z,-2.70
2023-02-27T05:34:41.055Z,-2.70
2023-02-27T05:35:29.089Z,-2.80
2023-02-27T05:36:13.044Z,-2.80
2023-02-27T05:36:59.196Z,-2.80
2023-02-27T05:37:45.158Z,-2.80
2023-02-27T05:38:31.024Z,-2.80
2023-02-27T05:39:17.181Z,-2.80
2023-02-27T05:40:03.066Z,-2.80
2023-02-27T05:40:49.134Z,-2.80
2023-02-27T05:41:35.245Z,-2.80
2023-02-27T05:42:21.175Z,-2.90
2023-02-27T05:43:07.138Z,-2.90
2023-02-27T05:43:53.072Z,-2.90
2023-02-27T05:44:39.112Z,-2.90
2023-02-27T05:45:25.231Z,-2.90
2023-02-27T05:46:11.084Z,-2.90
2023-02-27T05:46:57.178Z,-2.90
2023-02-27T05:47:43.147Z,-2.90
2023-02-27T05:48:29.173Z,-2.90
2023-02-27T05:49:15.109Z,-2.90
2023-02-27T05:50:01.103Z,-2.90
2023-02-27T05:50:47.145Z,-2.90
2023-02-27T05:51:33.142Z,-2.90
2023-02-27T05:52:19.252Z,-2.90
2023-02-27T05:53:05.189Z,-2.90
2023-02-27T05:53:51.191Z,-2.90
2023-02-27T05:54:37.165Z,-2.90
2023-02-27T05:55:23.174Z,-2.80
2023-02-27T05:56:09.181Z,-2.80
2023-02-27T05:56:55.221Z,-2.80
2023-02-27T05:57:41.175Z,-2.80
2023-02-27T05:58:27.244Z,-2.80
2023-02-27T05:59:13.156Z,-2.80
2023-02-27T05:59:59.187Z,-2.90
2023-02-27T06:00:45.768Z,-2.90
2023-02-27T06:01:31.159Z,-2.90
2023-02-27T06:02:17.210Z,-2.90
2023-02-27T06:03:03.349Z,-3.00
2023-02-27T06:03:49.243Z,-3.00
2023-02-27T06:04:35.223Z,-3.00
2023-02-27T06:05:21.184Z,-3.00
2023-02-27T06:06:07.169Z,-3.00
2023-02-27T06:06:53.252Z,-3.00
2023-02-27T06:07:39.379Z,-3.00
2023-02-27T06:08:25.156Z,-3.00
2023-02-27T06:09:11.201Z,-3.00
2023-02-27T06:09:57.283Z,-3.00
2023-02-27T06:10:43.220Z,-3.00
2023-02-27T06:11:30.032Z,-3.00
2023-02-27T06:12:15.208Z,-3.00
2023-02-27T06:13:01.306Z,-3.00
2023-02-27T06:13:47.276Z,-3.00
2023-02-27T06:14:33.291Z,-3.00
2023-02-27T06:15:19.550Z,-3.00
2023-02-27T06:16:05.386Z,-3.00
2023-02-27T06:16:51.325Z,-3.00
2023-02-27T06:17:37.410Z,-3.00
2023-02-27T06:18:23.316Z,-3.00
2023-02-27T06:19:09.475Z,-3.00
2023-02-27T06:19:55.304Z,-3.00
2023-02-27T06:20:41.410Z,-3.00
2023-02-27T06:21:27.457Z,-3.00
2023-02-27T06:22:13.415Z,-2.90
2023-02-27T06:22:59.360Z,-2.90
2023-02-27T06:23:45.932Z,-2.90
2023-02-27T06:24:31.375Z,-2.90
2023-02-27T06:25:17.535Z,-2.90
2023-02-27T06:26:03.392Z,-2.90
2023-02-27T06:26:49.488Z,-2.90
2023-02-27T06:27:35.409Z,-2.90
2023-02-27T06:28:21.366Z,-2.90
2023-02-27T06:29:07.436Z,-2.90
2023-02-27T06:29:53.416Z,-2.90
2023-02-27T06:30:39.677Z,-2.80
2023-02-27T06:31:25.423Z,-2.80
2023-02-27T06:32:11.419Z,-2.80
2023-02-27T06:32:57.340Z,-2.80
2023-02-27T06:33:43.496Z,-2.80
2023-02-27T06:34:29.482Z,-2.80
2023-02-27T06:35:15.424Z,-2.80
2023-02-27T06:36:01.765Z,-2.80
2023-02-27T06:36:47.477Z,-2.80
2023-02-27T06:37:33.401Z,-2.70
2023-02-27T06:38:19.480Z,-2.70
2023-02-27T06:39:05.386Z,-2.70
2023-02-27T06:39:51.461Z,-2.70
2023-02-27T06:40:37.410Z,-2.70
2023-02-27T06:41:23.466Z,-2.60
2023-02-27T06:42:09.437Z,-2.60
2023-02-27T06:42:55.480Z,-2.60
2023-02-27T06:43:41.540Z,-2.60
2023-02-27T06:44:27.535Z,-2.60
2023-02-27T06:45:13.575Z,-2.60
2023-02-27T06:45:59.499Z,-2.60
2023-02-27T06:46:46.301Z,-2.50
2023-02-27T06:47:31.416Z,-2.50
2023-02-27T06:48:17.456Z,-2.50
2023-02-27T06:49:03.389Z,-2.50
2023-02-27T06:49:49.474Z,-2.40
2023-02-27T06:50:35.484Z,-2.40
2023-02-27T06:51:21.461Z,-2.40
2023-02-27T06:52:07.494Z,-2.30
2023-02-27T06:52:53.538Z,-2.30
2023-02-27T06:53:39.568Z,-2.30
2023-02-27T06:54:25.574Z,-2.20
2023-02-27T06:55:11.493Z,-2.20
2023-02-27T06:55:57.574Z,-2.20
2023-02-27T06:56:43.551Z,-2.10
2023-02-27T06:57:29.505Z,-2.10
2023-02-27T06:58:15.675Z,-2.00
2023-02-27T06:59:01.516Z,-2.00
2023-02-27T06:59:47.547Z,-1.90
2023-02-27T07:00:33.631Z,-1.90
2023-02-27T07:01:19.768Z,-1.90
2023-02-27T07:02:05.489Z,-1.80
2023-02-27T07:02:51.489Z,-1.80
2023-02-27T07:03:37.580Z,-1.70
2023-02-27T07:04:23.588Z,-1.60
2023-02-27T07:05:09.585Z,-1.60
2023-02-27T07:05:55.606Z,-1.60
2023-02-27T07:07:33.348Z,-1.50
2023-02-27T07:08:13.571Z,-1.40
2023-02-27T07:09:06.398Z,-1.40
2023-02-27T07:09:46.151Z,-1.30
2023-02-27T07:10:31.528Z,-1.30
2023-02-27T07:11:17.534Z,-1.30
2023-02-27T07:12:03.493Z,-1.20
2023-02-27T07:12:49.608Z,-1.20
2023-02-27T07:13:35.570Z,-1.10
2023-02-27T07:14:21.597Z,-1.10
2023-02-27T07:15:07.660Z,-1.10
2023-02-27T07:15:53.583Z,-1.00
2023-02-27T07:16:39.621Z,-.90
2023-02-27T07:17:25.966Z,-.90
2023-02-27T07:18:11.567Z,-.90
2023-02-27T07:18:57.578Z,-.80
2023-02-27T07:19:43.662Z,-.80
2023-02-27T07:20:29.716Z,-.70
2023-02-27T07:21:15.613Z,-.70
2023-02-27T07:22:01.699Z,-.70
2023-02-27T07:22:47.675Z,-.60
2023-02-27T07:23:33.552Z,-.60
2023-02-27T07:24:19.689Z,-.50
2023-02-27T07:25:05.716Z,-.40
2023-02-27T07:25:51.667Z,-.40
2023-02-27T07:26:37.585Z,-.40
2023-02-27T07:27:23.699Z,-.30
2023-02-27T07:28:09.777Z,-.30
2023-02-27T07:28:55.720Z,-.30
2023-02-27T07:29:41.648Z,-.20
2023-02-27T07:30:27.844Z,-.20
2023-02-27T07:31:13.763Z,-.10
2023-02-27T07:31:59.639Z,0
2023-02-27T07:32:46.408Z,.10
2023-02-27T07:33:31.821Z,.20
2023-02-27T07:34:17.966Z,.20
2023-02-27T07:35:03.768Z,.30
2023-02-27T07:35:49.963Z,.30
2023-02-27T07:36:35.910Z,.30
2023-02-27T07:37:21.825Z,.30
2023-02-27T07:38:07.876Z,.20
2023-02-27T07:38:53.823Z,.30
2023-02-27T07:39:39.978Z,.30
2023-02-27T07:40:25.934Z,.40
2023-02-27T07:41:21.291Z,.40
2023-02-27T07:41:57.897Z,.50
2023-02-27T07:42:43.960Z,.50
2023-02-27T07:43:30.029Z,.60
2023-02-27T07:44:15.902Z,.60
2023-02-27T07:45:02.218Z,.60
2023-02-27T07:45:47.941Z,.70
2023-02-27T07:46:33.881Z,.70
2023-02-27T07:47:20.079Z,.70
2023-02-27T07:48:05.892Z,.70
2023-02-27T07:48:51.849Z,.70
2023-02-27T07:49:37.971Z,.80
2023-02-27T07:50:23.851Z,.80
2023-02-27T07:51:09.973Z,.80
2023-02-27T07:51:55.979Z,1.00
2023-02-27T07:52:41.896Z,1.00
2023-02-27T07:53:28.054Z,1.00
2023-02-27T07:54:13.956Z,.90
2023-02-27T07:55:00.083Z,.90
2023-02-27T07:55:46.615Z,.90
2023-02-27T07:56:31.976Z,.90
2023-02-27T07:57:18.105Z,.90
2023-02-27T07:58:03.984Z,1.00
2023-02-27T07:58:49.959Z,1.10
2023-02-27T07:59:35.953Z,1.20
2023-02-27T08:00:22.080Z,1.20
2023-02-27T08:01:08.073Z,1.20
2023-02-27T08:01:54.008Z,1.20
2023-02-27T08:02:40.093Z,1.20
2023-02-27T08:03:26.150Z,1.30
2023-02-27T08:04:12.085Z,1.30
2023-02-27T08:04:58.107Z,1.30
2023-02-27T08:05:44.042Z,1.40
2023-02-27T08:06:30.352Z,1.40
2023-02-27T08:07:16.015Z,1.40
2023-02-27T08:08:02.313Z,1.40
2023-02-27T08:08:48.085Z,1.40
2023-02-27T08:09:33.977Z,1.40
2023-02-27T08:10:20.149Z,1.40
2023-02-27T08:11:05.973Z,1.40
2023-02-27T08:11:52.121Z,1.50
2023-02-27T08:12:38.262Z,1.50
2023-02-27T08:13:35.799Z,1.60
2023-02-27T08:14:10.067Z,1.60
2023-02-27T08:14:56.159Z,1.60
2023-02-27T08:15:42.282Z,1.70
2023-02-27T08:16:28.597Z,1.70
2023-02-27T08:17:14.055Z,1.70
2023-02-27T08:18:00.098Z,1.70
2023-02-27T08:18:47.042Z,1.70
2023-02-27T08:19:32.063Z,1.70
2023-02-27T08:20:18.179Z,1.70
2023-02-27T08:21:04.096Z,1.70
2023-02-27T08:21:50.125Z,1.70
2023-02-27T08:22:36.052Z,1.70
2023-02-27T08:23:22.274Z,1.60
2023-02-27T08:24:08.336Z,1.60
2023-02-27T08:24:54.192Z,1.60
2023-02-27T08:25:40.090Z,1.60
2023-02-27T08:26:26.703Z,1.60
2023-02-27T08:27:12.256Z,1.60
2023-02-27T08:27:58.105Z,1.70
2023-02-27T08:28:44.145Z,1.70
2023-02-27T08:29:30.069Z,1.80
2023-02-27T08:30:16.199Z,1.80
2023-02-27T08:31:02.254Z,1.80
2023-02-27T08:31:48.279Z,1.80
2023-02-27T08:32:34.370Z,1.80
2023-02-27T08:33:20.359Z,1.90
2023-02-27T08:34:10.219Z,1.90
2023-02-27T08:34:52.194Z,1.90
2023-02-27T08:35:38.219Z,1.90
2023-02-27T08:36:24.154Z,1.90
2023-02-27T08:37:10.057Z,1.90
2023-02-27T08:37:56.145Z,1.90
2023-02-27T08:38:42.380Z,1.90
2023-02-27T08:39:28.132Z,1.80
2023-02-27T08:40:14.112Z,1.90
2023-02-27T08:41:00.183Z,1.90
2023-02-27T08:41:47.095Z,2.10
2023-02-27T08:42:32.168Z,2.20
2023-02-27T08:43:18.422Z,2.20
2023-02-27T08:44:04.102Z,2.20
2023-02-27T08:44:50.323Z,2.10
2023-02-27T08:45:36.461Z,2.10
2023-02-27T08:46:22.378Z,2.10
2023-02-27T08:47:08.402Z,2.10
2023-02-27T08:47:54.114Z,2.10
2023-02-27T08:48:40.175Z,2.10
2023-02-27T08:49:26.297Z,2.20
2023-02-27T08:50:12.240Z,2.20
2023-02-27T08:50:58.410Z,2.40
2023-02-27T08:51:44.242Z,2.40
2023-02-27T08:52:30.156Z,2.40
2023-02-27T08:53:16.204Z,2.40
2023-02-27T08:54:02.251Z,2.40
2023-02-27T08:54:48.320Z,2.40
2023-02-27T08:55:34.269Z,2.30
2023-02-27T08:56:20.372Z,2.30
2023-02-27T08:57:06.262Z,2.30
2023-02-27T08:57:52.257Z,2.30
2023-02-27T08:58:38.359Z,2.40
2023-02-27T08:59:24.416Z,2.70
2023-02-27T09:00:10.446Z,2.80
2023-02-27T09:00:56.365Z,2.90
2023-02-27T09:01:42.434Z,3.00
2023-02-27T09:02:28.550Z,3.00
2023-02-27T09:03:14.270Z,3.00
2023-02-27T09:04:00.594Z,3.00
2023-02-27T09:04:47.159Z,3.00
2023-02-27T09:05:32.292Z,3.00
2023-02-27T09:06:18.417Z,3.00
2023-02-27T09:07:04.268Z,3.00
2023-02-27T09:07:50.501Z,3.00
2023-02-27T09:08:36.357Z,3.00
2023-02-27T09:09:22.388Z,3.00
2023-02-27T09:10:08.271Z,3.00
2023-02-27T09:10:54.346Z,3.10
2023-02-27T09:11:40.339Z,3.10
2023-02-27T09:12:26.388Z,3.20
2023-02-27T09:13:12.534Z,3.30
2023-02-27T09:13:58.410Z,3.30
2023-02-27T09:14:44.335Z,3.30
2023-02-27T09:15:30.655Z,3.20
2023-02-27T09:16:16.510Z,3.20
2023-02-27T09:17:02.301Z,3.20
2023-02-27T09:17:48.691Z,3.20
2023-02-27T09:18:34.444Z,3.30
2023-02-27T09:19:20.490Z,3.40
2023-02-27T09:20:06.363Z,3.50
2023-02-27T09:20:52.338Z,3.50
2023-02-27T09:21:38.330Z,3.50
2023-02-27T09:22:24.401Z,3.40
2023-02-27T09:23:10.434Z,3.40
2023-02-27T09:23:56.391Z,3.40
2023-02-27T09:24:42.507Z,3.60
2023-02-27T09:25:28.508Z,3.60
2023-02-27T09:26:14.415Z,3.60
2023-02-27T09:27:00.517Z,3.50
2023-02-27T09:27:47.002Z,3.50
2023-02-27T09:28:32.485Z,3.50
2023-02-27T09:29:18.725Z,3.40
2023-02-27T09:30:04.552Z,3.40
2023-02-27T09:30:50.444Z,3.30
2023-02-27T09:31:36.553Z,3.30
2023-02-27T09:32:22.567Z,3.30
2023-02-27T09:33:08.446Z,3.30
2023-02-27T09:33:54.426Z,3.40
2023-02-27T09:34:40.483Z,3.50
2023-02-27T09:35:26.569Z,3.70
2023-02-27T09:36:12.628Z,3.70
2023-02-27T09:36:58.491Z,3.80
2023-02-27T09:37:44.482Z,3.80
2023-02-27T09:38:30.471Z,3.80
2023-02-27T09:39:16.374Z,3.70
2023-02-27T09:40:02.550Z,3.70
2023-02-27T09:40:48.854Z,3.80
2023-02-27T09:41:34.775Z,3.90
2023-02-27T09:42:20.723Z,4.10
2023-02-27T09:43:06.585Z,4.10
2023-02-27T09:43:52.627Z,4.10
2023-02-27T09:44:46.334Z,4.10
2023-02-27T09:45:24.552Z,4.10
2023-02-27T09:46:10.633Z,4.10
2023-02-27T09:46:56.477Z,4.20
2023-02-27T09:47:42.574Z,4.30
2023-02-27T09:48:28.615Z,4.30
2023-02-27T09:49:14.487Z,4.30
2023-02-27T09:50:00.552Z,4.20
2023-02-27T09:50:46.894Z,4.10
2023-02-27T09:51:32.607Z,4.10
2023-02-27T09:52:18.942Z,4.00
2023-02-27T09:53:04.528Z,4.00
2023-02-27T09:53:50.568Z,4.00
2023-02-27T09:54:36.620Z,4.00
2023-02-27T09:55:22.584Z,4.00
2023-02-27T09:56:08.525Z,4.00
2023-02-27T09:56:54.482Z,4.00
2023-02-27T09:57:40.509Z,4.00
2023-02-27T09:58:26.546Z,3.90
2023-02-27T09:59:12.581Z,3.90